Time;durP1;ratioP1;P1;durP2;ratioP2;P2;SDS_P1;SDS_P2;PMS_P1;PMS_P2;Temp;Humidity;BMP_temperature;BMP_pressure;BME280_temperature;BME280_humidity;BME280_pressure;Samples;Min_cycle;Max_cycle;Signal;HPM_P1;HPM_P2
2023/04/06 05:02:44;;;;;;;;;8.00;8.00;;;;;14.66;42.28;68433.19;4916841;28;45716;-85
2023/04/06 05:05:09;;;;;;;;;8.00;8.00;;;;;14.34;42.09;68470.91;4915968;28;45460;-87
2023/04/06 05:07:34;;;;;;;;;9.67;7.33;;;;;14.57;42.04;68449.72;4931706;28;45492;-85
2023/04/06 05:10:00;;;;;;;;;7.33;6.00;;;;;14.69;42.27;68423.44;4915910;28;45652;-90
2023/04/06 05:12:27;;;;;;;;;7.67;5.00;;;;;14.49;42.44;68418.94;4931433;28;45516;-89
2023/04/06 05:14:53;;;;;;;;;10.00;7.00;;;;;14.72;42.54;68435.56;4915445;28;46419;-87
2023/04/06 05:17:18;;;;;;;;;12.67;8.33;;;;;14.52;42.98;68441.72;4933411;28;45709;-87
2023/04/06 05:19:44;;;;;;;;;6.67;4.00;;;;;14.51;42.97;68461.78;4913440;28;45826;-87
2023/04/06 05:22:09;;;;;;;;;5.00;5.00;;;;;14.69;43.17;68402.16;4932105;28;46049;-88
2023/04/06 05:24:35;;;;;;;;;6.33;6.33;;;;;14.53;42.93;68421.59;4921213;28;46035;-90
2023/04/06 05:27:00;;;;;;;;;6.00;6.00;;;;;13.61;43.58;68285.22;4930514;28;45629;-88
2023/04/06 05:29:26;;;;;;;;;7.33;6.00;;;;;14.24;43.82;68435.13;4935929;28;48223;-89
2023/04/06 05:31:51;;;;;;;;;7.67;6.67;;;;;14.36;44.61;68423.34;4917621;28;45541;-88
2023/04/06 05:34:17;;;;;;;;;11.33;7.67;;;;;13.98;44.58;68309.81;4917122;28;45498;-90
2023/04/06 05:36:42;;;;;;;;;8.67;8.67;;;;;13.76;44.70;68315.66;4927859;28;45762;-87
2023/04/06 05:39:07;;;;;;;;;2.00;2.00;;;;;14.32;44.90;68399.38;4917099;28;45724;-87
2023/04/06 05:41:33;;;;;;;;;6.33;6.33;;;;;14.61;44.80;68403.91;4921130;28;45955;-88
2023/04/06 05:43:58;;;;;;;;;12.00;7.33;;;;;14.59;45.64;68436.13;4915865;28;45531;-89
2023/04/06 05:46:24;;;;;;;;;5.67;5.00;;;;;14.03;45.49;68352.94;4919788;28;46199;-88
2023/04/06 05:48:49;;;;;;;;;9.33;8.00;;;;;13.89;45.46;68312.44;4932445;28;47325;-90
2023/04/06 05:51:14;;;;;;;;;8.33;6.33;;;;;13.41;45.32;68286.03;4918064;28;45568;-89
2023/04/06 05:53:40;;;;;;;;;8.00;8.00;;;;;14.56;45.56;68432.56;4916473;28;45452;-90
2023/04/06 05:56:06;;;;;;;;;11.00;9.33;;;;;13.46;45.91;68380.19;4915225;28;45393;-90
2023/04/06 05:58:32;;;;;;;;;7.00;6.33;;;;;14.35;46.03;68374.28;4922121;28;46020;-90
2023/04/06 06:01:01;;;;;;;;;6.33;6.33;;;;;14.02;46.30;68216.16;4927392;28;45496;-91
2023/04/06 06:03:27;;;;;;;;;7.33;7.33;;;;;14.13;46.56;68306.28;4933693;28;45312;-92
2023/04/06 06:05:52;;;;;;;;;8.00;6.67;;;;;14.13;46.31;68329.63;4932928;28;46625;-91
2023/04/06 06:08:17;;;;;;;;;13.00;10.33;;;;;13.12;47.19;68191.25;4918249;28;45631;-91
2023/04/06 06:10:43;;;;;;;;;9.67;7.33;;;;;13.92;47.74;68228.28;4932994;28;45602;-90
2023/04/06 06:13:09;;;;;;;;;7.00;7.00;;;;;13.94;47.70;68199.31;4930967;28;45332;-90
2023/04/06 06:15:34;;;;;;;;;10.67;7.33;;;;;13.88;47.76;68274.66;4923438;28;45479;-89
2023/04/06 06:18:00;;;;;;;;;10.67;10.67;;;;;13.54;47.81;68186.63;4929669;28;47755;-89
2023/04/06 06:20:26;;;;;;;;;13.33;9.33;;;;;14.07;48.58;68109.81;4921066;28;45668;-90
2023/04/06 06:22:52;;;;;;;;;12.33;10.33;;;;;14.20;49.29;68252.81;4919752;28;45377;-88
2023/04/06 06:25:17;;;;;;;;;18.00;14.67;;;;;14.19;48.44;68131.38;4923923;28;45639;-88
2023/04/06 06:27:43;;;;;;;;;8.00;8.00;;;;;13.23;48.49;67915.47;4923886;28;45472;-92
2023/04/06 06:30:08;;;;;;;;;8.00;8.00;;;;;13.84;48.62;68008.88;4940834;28;45471;-91
2023/04/06 06:32:34;;;;;;;;;12.33;10.33;;;;;13.51;48.56;68021.66;4923354;28;45601;-93
2023/04/06 06:34:59;;;;;;;;;7.67;7.67;;;;;13.27;49.28;67898.94;4942397;28;45524;-94
2023/04/06 06:37:25;;;;;;;;;7.00;7.00;;;;;13.34;48.61;68041.41;4939967;28;48128;-96
2023/04/06 06:39:50;;;;;;;;;11.00;8.67;;;;;13.99;48.19;68004.69;4938873;28;46124;-90
2023/04/06 06:42:16;;;;;;;;;8.67;8.67;;;;;13.56;48.23;67944.59;4919396;28;45452;-95
2023/04/06 06:44:41;;;;;;;;;7.67;5.67;;;;;14.36;48.31;68117.47;4976818;23;45468;-85
2023/04/06 06:47:06;;;;;;;;;8.00;8.00;;;;;13.59;49.06;67911.53;4928790;28;45460;-85
2023/04/06 06:49:32;;;;;;;;;10.00;10.00;;;;;14.38;48.95;67980.34;4938265;28;45334;-86
2023/04/06 06:51:57;;;;;;;;;10.00;9.33;;;;;14.08;48.84;67930.25;4936722;28;45734;-85
2023/04/06 06:54:22;;;;;;;;;9.00;8.67;;;;;13.25;48.57;67962.94;4938316;28;45581;-86
2023/04/06 06:56:48;;;;;;;;;8.33;8.33;;;;;14.08;48.75;67871.75;4939445;28;46015;-86
2023/04/06 06:59:13;;;;;;;;;12.67;8.00;;;;;13.19;48.42;67937.28;4936517;28;45641;-86
2023/04/06 07:01:44;;;;;;;;;8.33;8.33;;;;;14.41;48.61;67959.94;4950959;28;45496;-85
2023/04/06 07:04:10;;;;;;;;;13.00;11.00;;;;;14.21;48.63;67958.84;4940765;28;45527;-88
2023/04/06 07:06:36;;;;;;;;;68.25;55.50;;;;;13.17;48.17;68000.72;4939001;28;47183;-90
2023/04/06 07:09:03;;;;;;;;;28.67;27.33;;;;;13.72;48.65;67990.59;4941333;28;45242;-87
2023/04/06 07:11:29;;;;;;;;;20.00;15.33;;;;;14.50;48.79;67899.28;4941022;28;45311;-87
2023/04/06 07:13:54;;;;;;;;;10.33;10.33;;;;;13.90;49.19;67821.94;4941390;28;45401;-88
2023/04/06 07:16:20;;;;;;;;;13.00;11.33;;;;;14.53;49.49;67836.31;4941134;28;45448;-91
2023/04/06 07:18:45;;;;;;;;;7.33;7.33;;;;;14.25;49.87;67729.53;4939574;28;45373;-87
2023/04/06 07:21:11;;;;;;;;;11.00;9.67;;;;;14.52;50.09;67632.97;4940863;28;45281;-86
2023/04/06 07:23:37;;;;;;;;;12.67;10.00;;;;;14.27;50.44;67563.78;4941620;28;45314;-89
2023/04/06 07:26:02;;;;;;;;;6.33;6.33;;;;;14.51;50.49;67540.75;4941273;28;46979;-87
2023/04/06 07:28:28;;;;;;;;;10.67;9.67;;;;;14.14;51.07;67257.34;4940751;28;45484;-87
2023/04/06 07:30:54;;;;;;;;;14.67;13.33;;;;;14.51;51.27;67189.66;4941155;28;45382;-87
2023/04/06 07:33:19;;;;;;;;;8.00;7.67;;;;;14.19;51.64;66948.91;4941390;28;45332;-87
2023/04/06 07:35:45;;;;;;;;;12.67;12.67;;;;;14.50;51.84;66827.38;4940261;28;45988;-87
2023/04/06 07:38:10;;;;;;;;;12.00;11.00;;;;;14.30;51.54;66868.03;4940918;28;45355;-86
2023/04/06 07:40:35;;;;;;;;;15.00;14.00;;;;;14.56;52.05;66581.13;4940665;28;45480;-87
2023/04/06 07:43:01;;;;;;;;;5.33;5.33;;;;;14.61;52.15;66360.25;4940884;28;45326;-87
2023/04/06 07:45:27;;;;;;;;;14.00;9.33;;;;;14.64;52.07;66350.97;4940663;28;46117;-87
2023/04/06 07:47:52;;;;;;;;;12.67;12.00;;;;;14.67;52.35;66047.97;4940594;28;45472;-88
2023/04/06 07:50:18;;;;;;;;;8.00;8.00;;;;;14.67;52.97;65548.00;4940293;28;45369;-87
2023/04/06 07:52:43;;;;;;;;;7.00;5.00;;;;;14.69;52.35;65789.63;4940908;28;46028;-86
2023/04/06 07:55:09;;;;;;;;;15.00;10.67;;;;;14.55;51.70;65939.66;4940659;28;45488;-88
2023/04/06 07:57:34;;;;;;;;;17.33;11.00;;;;;14.56;52.41;65490.88;4939459;28;45450;-88
2023/04/06 08:00:00;;;;;;;;;10.33;10.00;;;;;14.73;52.84;65097.97;4940749;28;45417;-87
2023/04/06 08:02:25;;;;;;;;;11.67;11.67;;;;;14.69;52.90;64936.00;4940643;28;45461;-87
2023/04/06 08:04:51;;;;;;;;;9.33;9.33;;;;;14.74;52.80;64700.22;4938803;28;46931;-87
2023/04/06 08:07:17;;;;;;;;;11.33;8.67;;;;;14.39;52.97;64565.81;4940778;28;45436;-89
2023/04/06 08:09:42;;;;;;;;;15.67;14.33;;;;;14.34;53.31;64241.91;4938868;28;45559;-87
2023/04/06 08:12:08;;;;;;;;;10.00;9.00;;;;;14.01;52.46;64587.53;4937689;28;45568;-85
2023/04/06 08:14:33;;;;;;;;;8.67;8.67;;;;;14.90;51.79;64839.41;4937406;28;47129;-88
2023/04/06 08:16:59;;;;;;;;;11.33;11.00;;;;;14.48;51.92;64806.56;4923774;28;45415;-86
2023/04/06 08:19:28;;;;;;;;;11.00;8.33;;;;;14.06;52.57;64402.47;4932691;28;45499;-85
2023/04/06 08:21:53;;;;;;;;;12.00;10.67;;;;;14.81;52.48;64199.06;4959540;28;45368;-87
2023/04/06 08:24:19;;;;;;;;;11.00;9.33;;;;;14.97;51.99;64549.38;4959313;28;46888;-86
2023/04/06 08:26:44;;;;;;;;;14.67;10.67;;;;;14.79;52.53;64027.22;4959470;28;45262;-84
2023/04/06 08:29:10;;;;;;;;;11.67;11.67;;;;;14.88;52.60;63941.50;4940134;28;45876;-85
2023/04/06 08:31:35;;;;;;;;;48.00;38.75;;;;;15.12;52.49;64036.19;4937562;28;45436;-86
2023/04/06 08:34:03;;;;;;;;;17.33;14.00;;;;;14.96;51.93;64208.38;4938845;28;46415;-86
2023/04/06 08:36:28;;;;;;;;;12.67;11.67;;;;;15.12;52.30;64054.81;4937509;28;45515;-86
2023/04/06 08:38:54;;;;;;;;;13.67;9.67;;;;;15.04;51.95;64216.16;4939459;28;45568;-84
2023/04/06 08:41:20;;;;;;;;;11.33;10.33;;;;;15.15;52.31;64172.56;4937553;28;45734;-84
2023/04/06 08:43:48;;;;;;;;;3.33;3.33;;;;;15.16;52.35;63819.84;4938010;28;46405;-85
2023/04/06 08:46:14;;;;;;;;;13.67;9.67;;;;;15.14;52.22;63846.88;4935122;28;45389;-85
2023/04/06 08:48:41;;;;;;;;;10.67;10.67;;;;;15.13;52.18;63901.63;4938383;28;45370;-85
2023/04/06 08:51:11;;;;;;;;;17.67;16.00;;;;;15.12;52.56;63706.88;4938018;28;45523;-85
2023/04/06 08:53:37;;;;;;;;;15.33;14.67;;;;;14.94;52.11;63754.03;4938473;28;45307;-85
2023/04/06 08:56:03;;;;;;;;;15.00;14.00;;;;;15.04;52.46;63787.94;4935934;28;45476;-85
2023/04/06 08:58:36;;;;;;;;;17.67;13.33;;;;;15.06;52.24;63987.53;4932287;28;45500;-86
2023/04/06 09:01:05;;;;;;;;;12.33;10.67;;;;;15.03;52.00;63938.97;4935744;28;45551;-85
2023/04/06 09:03:31;;;;;;;;;15.33;14.00;;;;;15.01;52.13;63995.28;4937335;28;45484;-85
2023/04/06 09:05:58;;;;;;;;;16.00;14.00;;;;;14.98;52.41;63781.81;4937349;28;45490;-83
2023/04/06 09:08:23;;;;;;;;;12.67;9.33;;;;;14.98;52.69;63438.78;4937335;28;45357;-84
2023/04/06 09:10:51;;;;;;;;;14.33;12.00;;;;;14.98;53.84;62282.19;4936859;28;45695;-85
2023/04/06 09:13:17;;;;;;;;;12.67;11.67;;;;;14.85;53.67;61795.06;4936091;28;46538;-86
2023/04/06 09:15:45;;;;;;;;;12.67;12.33;;;;;14.74;54.22;60532.50;4937045;28;46519;-94
2023/04/06 09:18:11;;;;;;;;;12.67;12.00;;;;;14.80;54.73;59080.69;4936990;28;45500;-87
2023/04/06 09:20:36;;;;;;;;;9.00;8.00;;;;;14.84;54.68;59191.00;4937079;28;46127;-84
2023/04/06 09:23:01;;;;;;;;;6.33;6.33;;;;;14.94;54.28;59740.06;4936049;28;46113;-86
2023/04/06 09:25:27;;;;;;;;;14.00;10.67;;;;;14.74;54.82;58504.16;4937699;28;45409;-84
2023/04/06 09:28:04;;;;;;;;;9.67;9.67;;;;;14.91;54.93;57437.66;4925095;28;45378;-87
2023/04/06 09:30:29;;;;;;;;;9.33;9.33;;;;;14.92;55.21;56373.66;4926351;28;45873;-85
2023/04/06 09:32:56;;;;;;;;;7.00;7.00;;;;;14.80;55.04;56187.19;4934266;28;47423;-88
2023/04/06 09:35:23;;;;;;;;;5.00;5.00;;;;;14.93;54.60;56980.34;4934764;28;45622;-88
2023/04/06 09:37:50;;;;;;;;;8.00;8.00;;;;;14.92;55.88;52994.09;4931501;28;45454;-85
2023/04/06 09:40:18;;;;;;;;;10.67;9.00;;;;;14.82;55.89;53124.88;4934015;28;45576;-86
2023/04/06 09:42:47;;;;;;;;;9.00;9.00;;;;;14.89;55.61;53020.00;4935293;28;45646;-84
2023/04/06 09:45:13;;;;;;;;;6.67;6.33;;;;;14.85;55.87;51455.22;4932533;28;45537;-84
2023/04/06 09:47:44;;;;;;;;;5.00;3.67;;;;;14.87;55.18;52909.91;4924064;28;45496;-84
2023/04/06 09:50:12;;;;;;;;;7.33;7.33;;;;;14.87;55.81;51785.28;4933406;28;45497;-83
2023/04/06 09:52:38;;;;;;;;;8.33;6.33;;;;;14.86;56.26;48678.75;4935049;28;45682;-83
2023/04/06 09:55:05;;;;;;;;;5.00;5.00;;;;;14.84;56.91;45238.25;4937106;28;45446;-82
2023/04/06 09:58:02;;;;;;;;;8.00;5.33;;;;;14.72;56.77;46160.13;4938248;28;45347;-82
2023/04/06 10:00:31;;;;;;;;;5.33;5.33;;;;;14.10;56.63;45034.97;4929907;28;45514;-82
2023/04/06 10:02:56;;;;;;;;;5.00;5.00;;;;;14.80;57.06;42049.88;4943304;28;46281;-82
2023/04/06 10:05:36;;;;;;;;;7.00;6.67;;;;;14.77;56.79;43897.00;4938089;28;45318;-81
2023/04/06 10:08:15;;;;;;;;;5.67;5.00;;;;;14.66;56.90;43538.97;4931575;28;45475;-83
2023/04/06 10:10:42;;;;;;;;;8.00;8.00;;;;;14.52;56.66;42838.56;4929661;28;45424;-83
2023/04/06 10:13:10;;;;;;;;;5.33;5.33;;;;;14.80;56.80;40456.19;4933332;28;46057;-86
2023/04/06 10:15:41;;;;;;;;;6.00;4.67;;;;;14.88;57.66;34753.41;4939059;28;45322;-85
2023/04/06 10:18:08;;;;;;;;;4.00;4.00;;;;;14.46;57.42;34263.84;4924814;28;46669;-85
2023/04/06 10:20:53;;;;;;;;;5.00;5.00;;;;;14.35;58.42;28641.97;4938068;28;45331;-86
2023/04/06 10:23:36;;;;;;;;;5.00;5.00;;;;;15.07;57.49;28003.59;4937989;28;47744;-85
2023/04/06 10:26:03;;;;;;;;;5.67;4.00;;;;;14.24;56.93;30658.69;4947106;23;45530;-85
2023/04/06 10:28:35;;;;;;;;;8.67;6.00;;;;;14.11;57.24;31499.78;4937947;28;45235;-86
2023/04/06 10:31:05;;;;;;;;;6.67;3.00;;;;;15.12;57.08;30706.38;4929966;28;45508;-86
2023/04/06 10:33:31;;;;;;;;;3.67;3.67;;;;;14.17;57.24;27958.69;4918985;28;46432;-86
2023/04/06 10:36:23;;;;;;;;;5.00;4.00;;;;;15.20;57.82;26660.69;4929504;28;45511;-83
2023/04/06 10:38:55;;;;;;;;;6.00;5.00;;;;;15.20;57.74;23289.00;4928525;28;45543;-89
2023/04/06 10:41:21;;;;;;;;;4.00;4.00;;;;;15.22;58.03;22615.38;4923420;28;45449;-85
2023/04/06 10:43:56;;;;;;;;;5.00;5.00;;;;;14.96;57.89;23278.53;4932606;28;46608;-85
2023/04/06 10:46:26;;;;;;;;;5.00;5.00;;;;;14.71;57.88;21921.19;4936020;28;45425;-85
2023/04/06 10:48:51;;;;;;;;;5.67;4.00;;;;;14.95;57.50;22941.44;4938357;28;45504;-89
2023/04/06 10:51:18;;;;;;;;;4.00;4.00;;;;;14.27;57.73;23249.16;4938361;28;45403;-85
2023/04/06 10:53:47;;;;;;;;;5.67;5.00;;;;;14.34;57.66;21569.69;4935669;28;47717;-85
2023/04/06 10:56:15;;;;;;;;;2.00;2.00;;;;;14.62;57.12;23263.97;4927872;28;46341;-84
2023/04/06 10:58:52;;;;;;;;;4.67;3.00;;;;;14.03;57.45;22566.19;4930460;28;45520;-84
2023/04/06 11:01:19;;;;;;;;;3.33;2.00;;;;;14.69;57.14;23267.22;4933182;28;45612;-86
2023/04/06 11:03:49;;;;;;;;;3.33;3.33;;;;;15.45;57.34;22624.94;4933009;28;46902;-87
2023/04/06 11:06:35;;;;;;;;;3.33;2.33;;;;;15.03;57.24;22944.44;4936381;28;45638;-89
2023/04/06 11:09:01;;;;;;;;;3.00;3.00;;;;;14.31;56.75;23924.09;4944777;28;45506;-87
2023/04/06 11:11:26;;;;;;;;;3.00;3.00;;;;;15.16;56.69;24972.75;4941135;28;45547;-88
2023/04/06 11:13:54;;;;;;;;;4.33;2.00;;;;;15.65;56.56;24657.34;4945091;28;45929;-87
2023/04/06 11:16:28;;;;;;;;;2.00;2.00;;;;;15.24;57.02;21942.28;4944417;28;45484;-88
2023/04/06 11:18:57;;;;;;;;;4.33;4.33;;;;;16.23;56.35;21307.50;4944818;28;45413;-87
2023/04/06 11:24:44;;;;;;;;;2.67;1.67;;;;;15.68;55.39;19263.66;4943606;28;45412;-87
2023/04/06 11:30:48;;;;;;;;;4.00;2.00;;;;;17.56;53.75;21359.72;4942369;28;45457;-93
2023/04/06 11:42:35;;;;;;;;;2.00;2.00;;;;;18.33;51.79;29524.38;5380201;23;45481;-92
2023/04/06 11:45:00;;;;;;;;;3.00;2.00;;;;;17.40;51.23;32263.31;4945557;28;45281;-93
2023/04/06 11:47:33;;;;;;;;;2.00;1.67;;;;;18.32;51.68;33379.63;4954678;28;45474;-96
2023/04/06 11:50:07;;;;;;;;;2.00;1.33;;;;;18.33;51.67;34372.97;4943202;28;45286;-95
2023/04/06 11:52:36;;;;;;;;;1.00;1.00;;;;;17.67;51.51;35372.16;4943795;28;45473;-95
2023/04/06 11:55:14;;;;;;;;;6.67;4.33;;;;;18.30;51.34;37238.22;4942410;28;45357;-89
2023/04/06 11:57:40;;;;;;;;;2.00;2.00;;;;;18.27;50.71;39013.19;4940332;28;45997;-90
2023/04/06 12:00:09;;;;;;;;;0.00;0.00;;;;;18.20;50.20;41583.28;4941786;28;45504;-96
2023/04/06 12:02:34;;;;;;;;;3.00;2.00;;;;;18.10;50.13;43101.78;4926335;28;45523;-93
2023/04/06 12:05:00;;;;;;;;;1.00;1.00;;;;;17.85;49.59;44561.47;4939604;28;45397;-93
2023/04/06 12:07:25;;;;;;;;;0.00;0.00;;;;;18.42;49.61;44804.72;4940445;28;48027;-95
2023/04/06 12:09:50;;;;;;;;;1.00;1.00;;;;;18.45;50.04;43649.53;4940397;28;45671;-96
2023/04/06 12:12:16;;;;;;;;;1.00;1.00;;;;;18.29;49.59;44424.63;4940284;28;45892;-96
2023/04/06 12:14:41;;;;;;;;;1.33;1.00;;;;;18.47;49.51;45795.81;4941515;28;45569;-93
2023/04/06 12:17:06;;;;;;;;;1.00;1.00;;;;;18.20;48.78;48036.97;4941464;28;48439;-94
2023/04/06 12:19:32;;;;;;;;;1.00;1.00;;;;;18.12;48.60;49895.06;4943314;28;45315;-95
2023/04/06 12:21:57;;;;;;;;;0.00;0.00;;;;;17.74;48.93;50487.81;4946299;28;45382;-92
2023/04/06 12:24:23;;;;;;;;;2.00;0.00;;;;;16.85;49.30;50286.41;4941531;28;45578;-89
2023/04/06 12:26:49;;;;;;;;;0.33;0.33;;;;;17.92;49.06;50716.81;4940890;28;45728;-91
2023/04/06 12:29:15;;;;;;;;;3.00;3.00;;;;;17.08;49.27;50981.78;4940190;28;45320;-90
2023/04/06 12:31:42;;;;;;;;;0.00;0.00;;;;;17.73;49.46;51235.09;4935200;28;45476;-94
2023/04/06 12:34:08;;;;;;;;;1.00;1.00;;;;;16.36;49.73;51500.69;4937890;28;45570;-93
2023/04/06 12:36:33;;;;;;;;;0.33;0.33;;;;;16.68;50.32;51310.69;4937337;28;46970;-92
2023/04/06 12:39:02;;;;;;;;;0.00;0.00;;;;;16.87;50.21;51460.72;4938088;28;45465;-91
2023/04/06 12:41:29;;;;;;;;;0.33;0.33;;;;;17.29;49.59;51862.25;4938998;28;45364;-91
2023/04/06 12:43:55;;;;;;;;;2.33;1.00;;;;;16.53;50.10;51908.50;4938160;28;45399;-91
2023/04/06 12:46:20;;;;;;;;;2.67;0.00;;;;;16.94;49.69;52045.94;4939863;28;45529;-90
2023/04/06 12:48:46;;;;;;;;;0.67;0.67;;;;;16.91;50.28;52187.31;4938295;28;45433;-88
2023/04/06 12:51:12;;;;;;;;;0.00;0.00;;;;;17.36;49.92;52435.09;4940589;28;45355;-89
2023/04/06 12:53:37;;;;;;;;;2.00;1.00;;;;;17.01;49.95;52670.00;4939358;28;45396;-90
2023/04/06 12:56:11;;;;;;;;;1.00;0.00;;;;;16.21;49.85;52741.66;4938517;28;45731;-89
2023/04/06 12:58:43;;;;;;;;;0.00;0.00;;;;;16.31;49.80;52928.50;4936814;28;45927;-89
2023/04/06 13:01:09;;;;;;;;;0.00;0.00;;;;;16.30;50.09;53219.94;4938638;28;45435;-91
2023/04/06 13:03:50;;;;;;;;;0.00;0.00;;;;;15.93;50.30;53175.38;4937156;28;45598;-91
2023/04/06 13:06:15;;;;;;;;;0.00;0.00;;;;;17.29;50.09;53283.16;4935240;28;46034;-89
2023/04/06 13:08:47;;;;;;;;;0.00;0.00;;;;;16.47;49.89;53402.78;4939763;28;45418;-93
2023/04/06 13:11:12;;;;;;;;;0.00;0.00;;;;;16.52;49.61;53516.47;4936762;28;45780;-93
2023/04/06 13:13:56;;;;;;;;;0.00;0.00;;;;;17.11;49.60;53655.00;4937940;28;45394;-92
2023/04/06 13:16:21;;;;;;;;;0.00;0.00;;;;;15.99;48.96;54071.47;4937702;28;45507;-91
2023/04/06 13:18:47;;;;;;;;;0.00;0.00;;;;;17.29;49.51;54534.63;4937391;28;45495;-92
2023/04/06 13:21:16;;;;;;;;;1.67;0.00;;;;;16.02;48.98;54821.09;4942743;28;45396;-96
2023/04/06 13:23:47;;;;;;;;;0.00;0.00;;;;;16.60;48.95;54909.81;4986972;23;45604;-85
2023/04/06 13:26:14;;;;;;;;;1.00;1.00;;;;;16.54;49.07;55172.25;4938334;28;45481;-84
2023/04/06 13:28:40;;;;;;;;;0.00;0.00;;;;;16.83;49.25;54691.38;4937780;28;45370;-85
2023/04/06 13:31:06;;;;;;;;;0.00;0.00;;;;;16.96;49.15;54642.09;4935780;28;45541;-84
2023/04/06 13:33:35;;;;;;;;;1.33;1.00;;;;;17.52;48.60;54886.88;4937041;28;45591;-87
2023/04/06 13:36:04;;;;;;;;;0.00;0.00;;;;;17.57;48.87;54816.09;4937851;28;45421;-85
2023/04/06 13:38:29;;;;;;;;;0.00;0.00;;;;;16.83;48.56;54821.78;4933102;28;45459;-84
2023/04/06 13:40:55;;;;;;;;;1.00;0.00;;;;;16.48;48.65;55105.28;4937941;28;45498;-84
2023/04/06 13:43:21;;;;;;;;;0.00;0.00;;;;;17.53;48.67;55201.75;4937717;28;45446;-84
2023/04/06 13:46:00;;;;;;;;;1.33;0.00;;;;;17.46;48.90;55112.88;4937573;28;46920;-85
2023/04/06 13:48:41;;;;;;;;;0.00;0.00;;;;;17.07;48.67;55083.91;4929888;28;45389;-85
2023/04/06 13:51:13;;;;;;;;;0.00;0.00;;;;;17.58;48.65;55171.91;4937431;28;45288;-85
2023/04/06 14:03:46;;;;;;;;;0.00;0.00;;;;;17.25;47.14;58540.47;4932055;28;45477;-91
2023/04/06 14:06:13;;;;;;;;;0.00;0.00;;;;;17.24;46.44;59416.50;4938209;28;45581;-90
2023/04/06 14:08:38;;;;;;;;;0.00;0.00;;;;;17.78;46.77;59478.75;4938671;28;45312;-91
2023/04/06 14:11:04;;;;;;;;;0.00;0.00;;;;;17.84;46.75;59274.66;4938283;28;45481;-83
2023/04/06 14:13:29;;;;;;;;;0.00;0.00;;;;;17.79;46.55;59533.16;4937535;28;45430;-84
2023/04/06 14:15:55;;;;;;;;;0.00;0.00;;;;;17.95;45.72;60719.03;4937710;28;45430;-84
2023/04/06 14:18:22;;;;;;;;;0.00;0.00;;;;;18.09;45.64;60872.66;4938954;28;46917;-93
2023/04/06 14:20:54;;;;;;;;;0.00;0.00;;;;;18.17;45.50;60832.50;4941732;28;45488;-96
2023/04/06 14:23:20;;;;;;;;;0.00;0.00;;;;;18.11;45.84;60794.13;4941110;28;45355;-92
2023/04/06 14:25:46;;;;;;;;;0.00;0.00;;;;;18.06;45.01;61462.41;4939533;28;45506;-93
2023/04/06 14:28:12;;;;;;;;;0.00;0.00;;;;;18.33;45.29;61530.75;4940932;28;46400;-92
2023/04/06 14:30:38;;;;;;;;;0.00;0.00;;;;;17.97;44.50;61890.81;4941171;28;45528;-90
2023/04/06 14:33:03;;;;;;;;;2.00;0.00;;;;;18.24;44.36;62151.19;4941070;28;45413;-91
2023/04/06 14:35:30;;;;;;;;;0.00;0.00;;;;;17.99;44.74;62234.88;4955757;28;45512;-91
2023/04/06 14:37:57;;;;;;;;;0.00;0.00;;;;;18.29;45.09;62250.13;4941794;28;47054;-95
2023/04/06 14:40:25;;;;;;;;;0.00;0.00;;;;;18.41;45.11;62206.41;4942312;28;45239;-93
2023/04/06 14:42:51;;;;;;;;;0.00;0.00;;;;;18.43;44.62;62489.25;4942530;28;45643;-91
2023/04/06 14:45:19;;;;;;;;;0.00;0.00;;;;;18.42;44.50;62621.81;4940779;28;45392;-95
2023/04/06 14:47:44;;;;;;;;;0.00;0.00;;;;;18.40;43.92;63306.72;4941145;28;45981;-90
2023/04/06 14:50:10;;;;;;;;;0.00;0.00;;;;;18.00;44.26;63322.75;4954723;28;45499;-87
2023/04/06 14:52:36;;;;;;;;;0.00;0.00;;;;;18.27;44.18;63536.81;4940249;28;45421;-87
2023/04/06 14:55:01;;;;;;;;;0.00;0.00;;;;;18.31;43.83;63677.03;4940559;28;45341;-88
2023/04/06 14:57:27;;;;;;;;;0.00;0.00;;;;;18.09;44.42;63653.88;4938889;28;46130;-89
2023/04/06 14:59:55;;;;;;;;;0.00;0.00;;;;;17.96;44.08;63620.28;4940935;28;49334;-95
2023/04/06 15:02:20;;;;;;;;;0.00;0.00;;;;;18.09;44.06;63835.59;4927270;28;45361;-94
2023/04/06 15:04:46;;;;;;;;;0.00;0.00;;;;;18.26;44.41;63821.22;4939590;28;45494;-90
2023/04/06 15:07:14;;;;;;;;;0.00;0.00;;;;;17.83;44.50;63822.91;4942136;28;45314;-94
2023/04/06 15:09:39;;;;;;;;;0.00;0.00;;;;;17.11;43.96;63881.06;4940933;28;45488;-95
2023/04/06 15:12:05;;;;;;;;;2.00;0.33;;;;;17.30;44.25;63928.78;4940389;28;45343;-94
2023/04/06 15:14:30;;;;;;;;;2.33;2.33;;;;;17.32;44.59;63794.31;4940659;28;45665;-95
2023/04/06 15:16:56;;;;;;;;;0.00;0.00;;;;;17.13;44.46;63773.84;4958126;28;48072;-91
2023/04/06 15:19:21;;;;;;;;;0.00;0.00;;;;;17.63;44.33;63943.44;4941920;28;45549;-93
2023/04/06 15:21:53;;;;;;;;;0.00;0.00;;;;;17.60;44.67;64083.78;4939089;28;45847;-92
2023/04/06 15:24:18;;;;;;;;;0.00;0.00;;;;;17.83;44.21;64143.50;4936103;28;45599;-90
2023/04/06 15:26:45;;;;;;;;;0.00;0.00;;;;;18.10;44.11;64202.34;4940188;28;46115;-88
2023/04/06 15:29:11;;;;;;;;;0.00;0.00;;;;;17.69;43.62;64329.38;4940422;28;45360;-90
2023/04/06 15:31:37;;;;;;;;;0.00;0.00;;;;;18.32;43.87;64486.19;4943172;28;45470;-89
2023/04/06 15:34:09;;;;;;;;;1.33;0.00;;;;;17.97;43.87;64519.84;4941818;28;45537;-93
2023/04/06 15:36:43;;;;;;;;;0.00;0.00;;;;;17.42;44.08;64555.66;4946067;28;47617;-92
2023/04/06 15:39:09;;;;;;;;;0.00;0.00;;;;;17.41;43.71;64594.59;4934928;28;45420;-94
2023/04/06 15:41:36;;;;;;;;;0.67;0.67;;;;;17.17;43.91;64541.63;4937348;28;45725;-88
2023/04/06 15:44:13;;;;;;;;;0.00;0.00;;;;;17.66;44.22;64630.03;4939978;28;45506;-91
2023/04/06 15:46:39;;;;;;;;;0.33;0.00;;;;;16.81;44.23;64462.47;4939895;28;48185;-95
2023/04/06 15:49:04;;;;;;;;;0.00;0.00;;;;;16.56;44.07;64453.75;4938099;28;45270;-91
2023/04/06 15:51:30;;;;;;;;;0.00;0.00;;;;;17.04;44.61;64498.84;4940033;28;45240;-90
2023/04/06 15:53:57;;;;;;;;;1.00;0.00;;;;;17.72;44.62;64482.34;4937880;28;45518;-91
2023/04/06 15:56:22;;;;;;;;;0.00;0.00;;;;;18.07;44.18;64645.41;4943945;28;45455;-93
2023/04/06 15:58:48;;;;;;;;;0.00;0.00;;;;;17.40;44.71;64561.44;4943556;28;45670;-96
2023/04/06 16:01:16;;;;;;;;;0.00;0.00;;;;;17.60;44.40;64650.00;4951186;28;45427;-96
2023/04/06 16:03:51;;;;;;;;;0.00;0.00;;;;;17.45;44.08;64700.56;4947096;28;45568;-92
2023/04/06 16:06:16;;;;;;;;;1.00;1.00;;;;;17.79;44.09;64786.19;4937180;28;46733;-91
2023/04/06 16:08:42;;;;;;;;;0.00;0.00;;;;;16.40;43.97;64674.28;4934432;28;45760;-92
2023/04/06 16:11:08;;;;;;;;;0.00;0.00;;;;;18.03;44.64;64874.06;4933070;28;45341;-94
2023/04/06 16:13:35;;;;;;;;;0.00;0.00;;;;;17.11;44.15;64746.31;4934152;28;45476;-94
2023/04/06 16:16:02;;;;;;;;;0.00;0.00;;;;;17.98;44.44;64809.63;4938207;28;47120;-95
2023/04/06 16:18:28;;;;;;;;;0.00;0.00;;;;;17.55;44.79;64807.34;4957589;28;45961;-92
2023/04/06 16:20:53;;;;;;;;;0.00;0.00;;;;;16.35;44.51;64679.34;4939958;28;45468;-94
2023/04/06 16:23:19;;;;;;;;;0.00;0.00;;;;;16.70;44.95;64773.47;4938695;28;45617;-90
2023/04/06 16:25:44;;;;;;;;;0.00;0.00;;;;;17.40;44.67;64797.00;4938257;28;45622;-93
2023/04/06 16:28:10;;;;;;;;;0.00;0.00;;;;;17.68;44.76;64776.53;4940140;28;45525;-92
2023/04/06 16:33:48;;;;;;;;;0.00;0.00;;;;;16.99;44.85;64829.50;4942793;23;45600;-92
2023/04/06 16:36:26;;;;;;;;;1.67;0.00;;;;;17.26;44.75;64915.34;4940002;28;46548;-95
2023/04/06 16:38:52;;;;;;;;;0.00;0.00;;;;;16.95;44.98;64779.66;4956138;23;45290;-95
2023/04/06 16:41:30;;;;;;;;;0.00;0.00;;;;;17.05;44.82;64886.38;4944164;28;45324;-95
2023/04/06 16:44:01;;;;;;;;;0.00;0.00;;;;;16.25;44.52;64825.97;4934332;28;45577;-96
2023/04/06 16:47:13;;;;;;;;;0.00;0.00;;;;;16.38;44.04;64844.78;4939702;28;46267;-96
2023/04/06 16:49:42;;;;;;;;;1.00;0.00;;;;;17.05;44.63;64993.16;4903599;28;45428;-93
2023/04/06 16:52:22;;;;;;;;;0.00;0.00;;;;;16.52;43.68;65014.63;4906755;28;45312;-95
2023/04/06 16:54:48;;;;;;;;;0.00;0.00;;;;;17.16;43.83;65139.03;4897202;28;45691;-94
2023/04/06 16:57:14;;;;;;;;;0.00;0.00;;;;;16.68;43.83;65192.69;4886911;29;47206;-93
2023/04/06 16:59:39;;;;;;;;;0.33;0.00;;;;;17.92;43.67;65305.38;4898727;28;45498;-86
2023/04/06 17:02:04;;;;;;;;;0.00;0.00;;;;;17.28;44.26;65352.81;4903593;28;45491;-87